Time;durP1;ratioP1;P1;durP2;ratioP2;P2;SDS_P1;SDS_P2;PMS_P1;PMS_P2;Temp;Humidity;BMP_temperature;BMP_pressure;BME280_temperature;BME280_humidity;BME280_pressure;Samples;Min_cycle;Max_cycle;Signal;HPM_P1;HPM_P2
2022/04/05 00:00:04;;;;;;;7.10;5.70;;;;;;;;;;4942461;28;20427;-50
2022/04/05 00:02:30;;;;;;;6.30;5.70;;;;;;;;;;4943153;28;20857;-50
2022/04/05 00:04:56;;;;;;;8.17;5.80;;;;;;;;;;4943411;28;20467;-48
2022/04/05 00:07:23;;;;;;;5.77;5.17;;;;;;;;;;4939161;28;20945;-49
2022/04/05 00:09:49;;;;;;;5.07;4.60;;;;;;;;;;4941191;28;20538;-49
2022/04/05 00:12:15;;;;;;;8.40;5.57;;;;;;;;;;4948955;28;20510;-50
2022/04/05 00:14:41;;;;;;;5.90;4.77;;;;;;;;;;4947066;28;20795;-49
2022/04/05 00:17:07;;;;;;;6.93;5.80;;;;;;;;;;4942963;28;20439;-49
2022/04/05 00:19:33;;;;;;;5.57;4.70;;;;;;;;;;4946600;28;20443;-49
2022/04/05 00:21:59;;;;;;;9.53;5.20;;;;;;;;;;4945280;28;20542;-49
2022/04/05 00:24:25;;;;;;;7.10;5.10;;;;;;;;;;4945245;28;20530;-50
2022/04/05 00:26:51;;;;;;;7.03;5.17;;;;;;;;;;4940564;28;20471;-49
2022/04/05 00:29:19;;;;;;;7.00;4.97;;;;;;;;;;4947117;28;20479;-50
2022/04/05 00:31:45;;;;;;;7.30;6.13;;;;;;;;;;4941773;28;20447;-50
2022/04/05 00:34:11;;;;;;;6.23;5.30;;;;;;;;;;4941873;28;20445;-50
2022/04/05 00:36:37;;;;;;;6.23;5.13;;;;;;;;;;4951449;28;20458;-51
2022/04/05 00:39:03;;;;;;;7.93;6.03;;;;;;;;;;4945847;28;20432;-50
2022/04/05 00:41:29;;;;;;;5.80;4.90;;;;;;;;;;4938261;28;21027;-49
2022/04/05 00:43:55;;;;;;;6.90;5.00;;;;;;;;;;4947305;28;20446;-49
2022/04/05 00:46:21;;;;;;;7.20;5.37;;;;;;;;;;4944384;28;20427;-50
2022/04/05 00:48:51;;;;;;;6.23;5.13;;;;;;;;;;4943397;28;20526;-50
2022/04/05 00:51:18;;;;;;;8.20;5.73;;;;;;;;;;4943941;28;20442;-50
2022/04/05 00:53:53;;;;;;;9.17;5.93;;;;;;;;;;4945690;28;20445;-49
2022/04/05 00:56:20;;;;;;;8.50;5.53;;;;;;;;;;4944770;28;20443;-48
2022/04/05 00:59:06;;;;;;;7.93;5.73;;;;;;;;;;4941895;28;20450;-49
2022/04/05 01:01:32;;;;;;;9.03;5.50;;;;;;;;;;4943402;28;20480;-50
2022/04/05 01:03:58;;;;;;;8.03;5.17;;;;;;;;;;4945806;28;20443;-50
2022/04/05 01:06:29;;;;;;;7.53;5.47;;;;;;;;;;4945481;28;20435;-50
2022/04/05 01:08:56;;;;;;;7.90;5.80;;;;;;;;;;4944197;28;20486;-50
2022/04/05 01:11:22;;;;;;;7.47;5.47;;;;;;;;;;4943277;28;20808;-50
2022/04/05 01:13:48;;;;;;;6.30;5.10;;;;;;;;;;4942406;28;20450;-50
2022/04/05 01:16:14;;;;;;;8.53;5.60;;;;;;;;;;4938765;28;20920;-51
2022/04/05 01:18:40;;;;;;;6.30;5.70;;;;;;;;;;4940176;28;20509;-50
2022/04/05 01:21:06;;;;;;;7.23;5.03;;;;;;;;;;4944877;28;20443;-51
2022/04/05 01:23:35;;;;;;;6.47;5.40;;;;;;;;;;4941482;28;20448;-50
2022/04/05 01:26:01;;;;;;;8.20;5.60;;;;;;;;;;4939966;28;20458;-50
2022/04/05 01:28:27;;;;;;;5.20;4.70;;;;;;;;;;4942904;28;20592;-49
2022/04/05 01:30:53;;;;;;;4.90;4.40;;;;;;;;;;4946523;28;20954;-50
2022/04/05 01:33:19;;;;;;;6.90;5.70;;;;;;;;;;4940976;28;20483;-49
2022/04/05 01:35:45;;;;;;;7.70;5.40;;;;;;;;;;4938313;28;20431;-49
2022/04/05 01:38:11;;;;;;;7.97;5.60;;;;;;;;;;4944738;28;20450;-50
2022/04/05 01:40:38;;;;;;;5.17;4.67;;;;;;;;;;4942479;28;20553;-50
2022/04/05 01:43:04;;;;;;;7.13;4.87;;;;;;;;;;4940631;28;20450;-50
2022/04/05 01:45:30;;;;;;;7.83;5.80;;;;;;;;;;4942810;28;20752;-50
2022/04/05 01:47:56;;;;;;;5.70;4.90;;;;;;;;;;4945666;28;20558;-50
2022/04/05 01:50:22;;;;;;;7.20;4.77;;;;;;;;;;4944445;28;20996;-50
2022/04/05 01:52:47;;;;;;;6.67;4.27;;;;;;;;;;4942221;28;20447;-50
2022/04/05 01:55:13;;;;;;;5.70;4.80;;;;;;;;;;4938925;28;20434;-50
2022/04/05 01:57:39;;;;;;;6.00;4.93;;;;;;;;;;4940169;28;20188;-49
2022/04/05 02:00:06;;;;;;;8.80;6.30;;;;;;;;;;4944317;28;21034;-51
2022/04/05 02:02:32;;;;;;;6.37;4.67;;;;;;;;;;4942027;28;20435;-50
2022/04/05 02:04:58;;;;;;;5.63;4.70;;;;;;;;;;4945602;28;20448;-50
2022/04/05 02:07:24;;;;;;;5.60;5.10;;;;;;;;;;4946181;28;20439;-50
2022/04/05 02:09:50;;;;;;;7.93;5.43;;;;;;;;;;4948094;28;20551;-50
2022/04/05 02:12:16;;;;;;;6.60;5.70;;;;;;;;;;4947250;28;20467;-51
2022/04/05 02:14:42;;;;;;;9.37;5.87;;;;;;;;;;4947616;28;20529;-50
2022/04/05 02:17:09;;;;;;;6.60;5.27;;;;;;;;;;4948018;28;20514;-50
2022/04/05 02:19:36;;;;;;;6.80;4.40;;;;;;;;;;4947719;28;20434;-50
2022/04/05 02:22:01;;;;;;;5.27;4.73;;;;;;;;;;4948351;28;20440;-50
2022/04/05 02:24:27;;;;;;;7.27;4.60;;;;;;;;;;4950140;28;20435;-53
2022/04/05 02:26:53;;;;;;;5.80;4.80;;;;;;;;;;4949669;28;20430;-50
2022/04/05 02:29:19;;;;;;;7.70;4.90;;;;;;;;;;4953105;28;20510;-51
2022/04/05 02:31:45;;;;;;;7.10;5.23;;;;;;;;;;4949815;28;20446;-49
2022/04/05 02:34:11;;;;;;;6.60;5.17;;;;;;;;;;4949960;28;20493;-50
2022/04/05 02:36:37;;;;;;;6.97;5.17;;;;;;;;;;4945130;28;20442;-50
2022/04/05 02:39:04;;;;;;;6.63;5.90;;;;;;;;;;4946760;28;20442;-51
2022/04/05 02:41:30;;;;;;;7.20;4.87;;;;;;;;;;4952527;28;20802;-50
2022/04/05 02:43:56;;;;;;;6.13;4.67;;;;;;;;;;4952485;28;20454;-50
2022/04/05 02:46:22;;;;;;;6.13;5.53;;;;;;;;;;4953308;28;20600;-50
2022/04/05 02:48:53;;;;;;;5.43;4.50;;;;;;;;;;4949788;28;20613;-51
2022/04/05 02:51:19;;;;;;;10.33;6.40;;;;;;;;;;4942384;28;20432;-53
2022/04/05 02:53:45;;;;;;;9.93;5.90;;;;;;;;;;4948199;28;20442;-52
2022/04/05 02:56:11;;;;;;;7.80;5.00;;;;;;;;;;4944758;28;20541;-51
2022/04/05 02:58:37;;;;;;;6.73;6.07;;;;;;;;;;4939551;28;20463;-51
2022/04/05 03:01:03;;;;;;;4.50;4.10;;;;;;;;;;4946134;28;20529;-51
2022/04/05 03:03:29;;;;;;;8.63;5.37;;;;;;;;;;4948036;28;20435;-51
2022/04/05 03:05:55;;;;;;;9.43;5.93;;;;;;;;;;4945075;28;20784;-51
2022/04/05 03:08:22;;;;;;;7.27;4.77;;;;;;;;;;4945421;28;20562;-50
2022/04/05 03:10:48;;;;;;;6.43;4.97;;;;;;;;;;4946505;28;20427;-52
2022/04/05 03:13:14;;;;;;;7.57;4.83;;;;;;;;;;4972235;28;20442;-51
2022/04/05 03:15:40;;;;;;;6.10;5.47;;;;;;;;;;4961442;28;20881;-51
2022/04/05 03:18:06;;;;;;;7.50;5.50;;;;;;;;;;4946029;28;20449;-51
2022/04/05 03:20:32;;;;;;;4.80;4.30;;;;;;;;;;4950392;28;20439;-51
2022/04/05 03:23:00;;;;;;;7.20;5.67;;;;;;;;;;4942934;28;20443;-54
2022/04/05 03:25:26;;;;;;;8.10;4.80;;;;;;;;;;4949136;28;20451;-51
2022/04/05 03:27:52;;;;;;;7.23;5.50;;;;;;;;;;4941525;28;20590;-51
2022/04/05 03:30:19;;;;;;;7.57;4.70;;;;;;;;;;4946279;28;20428;-50
2022/04/05 03:32:45;;;;;;;5.67;5.10;;;;;;;;;;4943460;28;20486;-51
2022/04/05 03:35:11;;;;;;;5.80;4.90;;;;;;;;;;4947234;28;20433;-55
2022/04/05 03:37:37;;;;;;;7.40;6.57;;;;;;;;;;4946043;28;21138;-50
2022/04/05 03:40:03;;;;;;;7.30;6.10;;;;;;;;;;4942493;28;20424;-50
2022/04/05 03:42:29;;;;;;;12.23;5.30;;;;;;;;;;4946962;28;20463;-50
2022/04/05 03:44:55;;;;;;;8.03;5.83;;;;;;;;;;4944630;28;20437;-50
2022/04/05 03:47:22;;;;;;;8.70;5.40;;;;;;;;;;4934772;28;20964;-49
2022/04/05 03:49:47;;;;;;;7.57;4.57;;;;;;;;;;4942004;28;20451;-51
2022/04/05 03:52:14;;;;;;;6.40;5.60;;;;;;;;;;4940006;28;20455;-50
2022/04/05 03:54:39;;;;;;;5.70;4.90;;;;;;;;;;4940556;28;20536;-51
2022/04/05 03:57:05;;;;;;;6.87;4.63;;;;;;;;;;4944488;28;21044;-50
2022/04/05 03:59:31;;;;;;;8.63;5.57;;;;;;;;;;4944861;28;20439;-50
2022/04/05 04:01:58;;;;;;;5.60;4.87;;;;;;;;;;4940684;28;20451;-50
2022/04/05 04:04:24;;;;;;;6.63;6.03;;;;;;;;;;4943806;28;20439;-51
2022/04/05 04:06:50;;;;;;;8.53;4.50;;;;;;;;;;4944364;28;20905;-51
2022/04/05 04:09:16;;;;;;;6.10;5.03;;;;;;;;;;4940838;28;20592;-50
2022/04/05 04:11:42;;;;;;;10.17;6.60;;;;;;;;;;4942930;28;20470;-50
2022/04/05 04:14:08;;;;;;;6.13;4.73;;;;;;;;;;4944989;28;20234;-50
2022/04/05 04:16:34;;;;;;;9.10;5.70;;;;;;;;;;4944067;28;20472;-51
2022/04/05 04:19:00;;;;;;;8.40;5.63;;;;;;;;;;4943188;28;20956;-50
2022/04/05 04:21:26;;;;;;;12.23;5.57;;;;;;;;;;4945004;28;20454;-50
2022/04/05 04:23:52;;;;;;;6.20;4.67;;;;;;;;;;4940610;28;20777;-50
2022/04/05 04:26:18;;;;;;;7.07;5.07;;;;;;;;;;4940152;28;20836;-50
2022/04/05 04:28:44;;;;;;;7.80;5.17;;;;;;;;;;4945484;28;20978;-50
2022/04/05 04:31:10;;;;;;;6.23;4.57;;;;;;;;;;4932571;28;20443;-51
2022/04/05 04:33:36;;;;;;;7.47;5.30;;;;;;;;;;4947003;28;20444;-50
2022/04/05 04:36:03;;;;;;;5.73;4.53;;;;;;;;;;4941203;28;20443;-52
2022/04/05 04:38:28;;;;;;;10.97;5.63;;;;;;;;;;4944914;28;20915;-52
2022/04/05 04:40:54;;;;;;;6.20;5.23;;;;;;;;;;4903705;28;1054699;-50
2022/04/05 04:43:23;;;;;;;7.33;5.17;;;;;;;;;;4940913;28;20183;-51
2022/04/05 04:45:49;;;;;;;10.13;6.13;;;;;;;;;;4945699;28;20435;-51
2022/04/05 04:48:15;;;;;;;7.47;5.30;;;;;;;;;;4945888;28;20764;-51
2022/04/05 04:50:40;;;;;;;7.10;5.83;;;;;;;;;;4945732;28;20459;-52
2022/04/05 04:53:06;;;;;;;8.30;5.83;;;;;;;;;;4941239;28;20443;-52
2022/04/05 04:55:33;;;;;;;10.00;5.43;;;;;;;;;;4942712;28;20447;-52
2022/04/05 04:57:59;;;;;;;6.63;5.87;;;;;;;;;;4940984;28;20443;-53
2022/04/05 05:00:25;;;;;;;7.50;5.60;;;;;;;;;;4941670;28;20932;-52
2022/04/05 05:02:52;;;;;;;6.77;5.27;;;;;;;;;;4945312;28;20771;-51
2022/04/05 05:05:18;;;;;;;8.40;6.90;;;;;;;;;;4935051;28;20446;-50
2022/04/05 05:07:44;;;;;;;7.30;5.87;;;;;;;;;;4943915;28;20438;-51
2022/04/05 05:10:11;;;;;;;6.67;5.00;;;;;;;;;;4940893;28;20442;-51
2022/04/05 05:12:40;;;;;;;6.93;6.10;;;;;;;;;;4942146;28;20462;-51
2022/04/05 05:15:08;;;;;;;7.53;5.60;;;;;;;;;;4937119;28;20439;-50
2022/04/05 05:17:34;;;;;;;7.80;5.63;;;;;;;;;;4945773;28;20447;-51
2022/04/05 05:20:00;;;;;;;8.90;6.07;;;;;;;;;;4956618;28;20435;-52
2022/04/05 05:22:26;;;;;;;10.03;6.20;;;;;;;;;;4946108;28;20434;-51
2022/04/05 05:24:52;;;;;;;7.40;5.23;;;;;;;;;;4936448;28;20462;-52
2022/04/05 05:27:18;;;;;;;7.73;5.67;;;;;;;;;;4939661;28;20443;-50
2022/04/05 05:29:44;;;;;;;6.27;5.27;;;;;;;;;;4948403;28;20477;-52
2022/04/05 05:32:10;;;;;;;6.70;5.50;;;;;;;;;;4943317;28;20517;-50
2022/04/05 05:34:35;;;;;;;7.90;6.07;;;;;;;;;;4939603;28;20595;-51
2022/04/05 05:37:03;;;;;;;11.00;6.70;;;;;;;;;;4946058;28;20447;-51
2022/04/05 05:39:29;;;;;;;8.30;5.67;;;;;;;;;;4940505;28;20435;-52
2022/04/05 05:41:55;;;;;;;6.23;5.63;;;;;;;;;;4947935;28;20462;-51
2022/04/05 05:44:23;;;;;;;9.07;6.10;;;;;;;;;;4946805;28;20429;-52
2022/04/05 05:46:49;;;;;;;8.67;5.93;;;;;;;;;;4945567;28;20506;-51
2022/04/05 05:49:15;;;;;;;9.20;6.30;;;;;;;;;;4946575;28;20522;-51
2022/04/05 05:51:41;;;;;;;8.13;5.90;;;;;;;;;;4943230;28;20456;-51
2022/04/05 05:54:07;;;;;;;9.37;6.10;;;;;;;;;;4942111;28;20427;-51
2022/04/05 05:56:33;;;;;;;7.60;4.93;;;;;;;;;;4945072;28;20454;-52
2022/04/05 05:58:59;;;;;;;6.00;5.20;;;;;;;;;;4939242;28;20794;-52
2022/04/05 06:01:25;;;;;;;7.40;6.70;;;;;;;;;;4941308;28;20857;-51
2022/04/05 06:03:51;;;;;;;9.00;6.53;;;;;;;;;;4945283;28;20434;-50
2022/04/05 06:06:17;;;;;;;7.43;5.30;;;;;;;;;;4951502;28;21060;-50
2022/04/05 06:08:43;;;;;;;9.20;5.70;;;;;;;;;;4946906;28;20490;-51
2022/04/05 06:11:10;;;;;;;7.30;6.23;;;;;;;;;;4943285;28;20444;-51
2022/04/05 06:13:36;;;;;;;10.23;5.03;;;;;;;;;;4946010;28;20435;-51
2022/04/05 06:16:02;;;;;;;7.30;6.30;;;;;;;;;;4944380;28;20595;-51
2022/04/05 06:18:28;;;;;;;7.90;5.50;;;;;;;;;;4942958;28;20562;-52
2022/04/05 06:20:54;;;;;;;7.20;6.17;;;;;;;;;;4941293;28;20451;-51
2022/04/05 06:23:20;;;;;;;9.77;6.40;;;;;;;;;;4946567;28;20857;-51
2022/04/05 06:25:46;;;;;;;6.80;5.53;;;;;;;;;;4940930;28;20443;-49
2022/04/05 06:28:15;;;;;;;6.90;6.07;;;;;;;;;;4942152;28;20835;-52
2022/04/05 06:30:41;;;;;;;8.37;6.47;;;;;;;;;;4946872;28;20455;-51
2022/04/05 06:33:07;;;;;;;12.13;6.37;;;;;;;;;;4945465;28;20446;-51
2022/04/05 06:35:34;;;;;;;9.60;6.70;;;;;;;;;;4947566;28;20439;-51
2022/04/05 06:38:00;;;;;;;8.43;6.60;;;;;;;;;;4944655;28;20431;-51
2022/04/05 06:40:26;;;;;;;6.57;5.63;;;;;;;;;;4946696;28;20510;-51
2022/04/05 06:42:52;;;;;;;8.63;5.87;;;;;;;;;;4948096;28;20419;-51
2022/04/05 06:45:19;;;;;;;9.80;6.10;;;;;;;;;;4945226;28;20524;-51
2022/04/05 06:47:45;;;;;;;7.03;5.37;;;;;;;;;;4944973;28;20497;-52
2022/04/05 06:50:11;;;;;;;8.13;5.50;;;;;;;;;;4946788;28;20543;-52
2022/04/05 06:52:38;;;;;;;8.13;6.50;;;;;;;;;;4949339;28;20541;-52
2022/04/05 06:55:04;;;;;;;8.83;5.80;;;;;;;;;;4950416;28;20534;-52
2022/04/05 06:57:30;;;;;;;9.50;6.00;;;;;;;;;;4943662;28;20454;-52
2022/04/05 06:59:56;;;;;;;6.47;5.10;;;;;;;;;;4953018;28;20845;-51
2022/04/05 07:02:22;;;;;;;7.00;5.33;;;;;;;;;;4947782;28;20439;-52
2022/04/05 07:04:48;;;;;;;5.43;4.83;;;;;;;;;;4947794;28;20915;-51
2022/04/05 07:07:14;;;;;;;7.73;5.53;;;;;;;;;;4945171;28;20435;-51
2022/04/05 07:09:40;;;;;;;9.57;6.10;;;;;;;;;;4950197;28;20486;-51
2022/04/05 07:12:10;;;;;;;6.20;5.07;;;;;;;;;;4947179;28;20530;-53
2022/04/05 07:14:36;;;;;;;8.20;6.27;;;;;;;;;;4952624;28;20447;-51
2022/04/05 07:17:03;;;;;;;8.30;5.57;;;;;;;;;;4947396;28;20467;-51
2022/04/05 07:19:29;;;;;;;10.23;5.90;;;;;;;;;;4949201;28;20983;-51
2022/04/05 07:21:55;;;;;;;6.20;4.73;;;;;;;;;;4949681;28;20463;-51
2022/04/05 07:24:21;;;;;;;7.70;5.67;;;;;;;;;;4949591;28;20940;-52
2022/04/05 07:26:47;;;;;;;9.13;5.10;;;;;;;;;;4949536;28;20494;-51
2022/04/05 07:29:13;;;;;;;10.83;6.67;;;;;;;;;;4947205;28;20855;-52
2022/04/05 07:31:39;;;;;;;9.30;4.73;;;;;;;;;;4943471;28;20454;-52
2022/04/05 07:34:05;;;;;;;6.70;5.53;;;;;;;;;;4946257;28;20469;-52
2022/04/05 07:36:31;;;;;;;6.07;4.63;;;;;;;;;;4948080;28;20466;-52
2022/04/05 07:38:57;;;;;;;9.83;5.77;;;;;;;;;;4949883;28;20438;-53
2022/04/05 07:41:23;;;;;;;6.00;5.00;;;;;;;;;;4948342;28;20454;-52
2022/04/05 07:43:49;;;;;;;6.00;5.40;;;;;;;;;;4949292;28;20838;-55
2022/04/05 07:46:15;;;;;;;6.47;4.33;;;;;;;;;;4942027;28;20438;-52
2022/04/05 07:48:41;;;;;;;6.57;5.60;;;;;;;;;;4941129;28;20481;-52
2022/04/05 07:51:07;;;;;;;6.20;4.73;;;;;;;;;;4948123;28;20434;-52
2022/04/05 07:53:33;;;;;;;7.40;4.93;;;;;;;;;;4944717;28;20450;-51
2022/04/05 07:55:59;;;;;;;6.77;4.87;;;;;;;;;;4950675;28;20525;-52
2022/04/05 07:58:26;;;;;;;8.60;5.20;;;;;;;;;;4943595;28;20495;-50
2022/04/05 08:00:52;;;;;;;6.20;5.07;;;;;;;;;;4946209;28;20470;-51
2022/04/05 08:03:18;;;;;;;7.23;5.60;;;;;;;;;;4945543;28;20451;-52
2022/04/05 08:05:44;;;;;;;6.63;5.97;;;;;;;;;;4982427;28;20454;-51
2022/04/05 08:08:10;;;;;;;5.30;4.50;;;;;;;;;;4944394;28;20515;-51
2022/04/05 08:10:37;;;;;;;6.00;4.50;;;;;;;;;;4949574;28;20590;-50
2022/04/05 08:13:02;;;;;;;6.87;4.97;;;;;;;;;;4948197;28;20446;-53
2022/04/05 08:15:28;;;;;;;4.47;3.93;;;;;;;;;;4943816;28;20909;-52
2022/04/05 08:17:54;;;;;;;6.53;5.13;;;;;;;;;;4947536;28;20969;-52
2022/04/05 08:20:20;;;;;;;7.50;4.43;;;;;;;;;;4943583;28;20443;-52
2022/04/05 08:22:47;;;;;;;7.77;4.83;;;;;;;;;;4943387;28;20578;-52
2022/04/05 08:25:17;;;;;;;7.07;5.00;;;;;;;;;;4948679;28;20435;-53
2022/04/05 08:27:43;;;;;;;6.23;4.93;;;;;;;;;;4950720;28;20450;-52
2022/04/05 08:30:10;;;;;;;7.43;4.70;;;;;;;;;;4950054;28;20509;-52
2022/04/05 08:32:37;;;;;;;6.77;4.77;;;;;;;;;;4936330;28;20446;-52
2022/04/05 08:35:04;;;;;;;5.97;4.50;;;;;;;;;;4947663;28;20435;-52
2022/04/05 08:37:30;;;;;;;5.87;4.37;;;;;;;;;;4943107;28;20435;-52
2022/04/05 08:39:56;;;;;;;5.83;4.53;;;;;;;;;;4947628;28;20435;-52
2022/04/05 08:42:23;;;;;;;4.90;3.87;;;;;;;;;;4942769;28;20788;-51
2022/04/05 08:44:49;;;;;;;8.33;4.53;;;;;;;;;;4944073;28;20965;-51
2022/04/05 08:47:16;;;;;;;4.33;3.93;;;;;;;;;;4944367;28;20443;-51
2022/04/05 08:49:43;;;;;;;7.40;4.00;;;;;;;;;;4964406;28;20554;-50
2022/04/05 08:52:09;;;;;;;4.27;3.87;;;;;;;;;;4958084;28;20435;-51
2022/04/05 08:54:35;;;;;;;4.47;3.40;;;;;;;;;;4943547;28;20502;-52
2022/04/05 08:57:01;;;;;;;3.37;3.07;;;;;;;;;;4947928;28;20798;-53
2022/04/05 08:59:31;;;;;;;7.50;4.50;;;;;;;;;;4946961;28;20801;-52
2022/04/05 09:01:57;;;;;;;4.93;4.50;;;;;;;;;;4948754;28;20432;-51
2022/04/05 09:04:22;;;;;;;8.47;3.93;;;;;;;;;;4948123;28;20455;-52
2022/04/05 09:06:49;;;;;;;6.37;4.20;;;;;;;;;;4950212;28;20932;-51
2022/04/05 09:09:18;;;;;;;5.47;3.57;;;;;;;;;;4948199;28;20490;-52
2022/04/05 09:11:44;;;;;;;6.40;3.73;;;;;;;;;;4945405;28;20491;-51
2022/04/05 09:14:10;;;;;;;5.53;3.20;;;;;;;;;;4944038;28;20547;-51
2022/04/05 09:16:36;;;;;;;5.73;3.67;;;;;;;;;;4946963;28;20984;-51
2022/04/05 09:19:10;;;;;;;7.40;3.43;;;;;;;;;;4945654;28;20454;-52
2022/04/05 09:21:48;;;;;;;5.37;4.10;;;;;;;;;;4943724;28;20506;-56
2022/04/05 09:24:14;;;;;;;10.53;4.03;;;;;;;;;;4944760;28;20463;-58
2022/04/05 09:26:44;;;;;;;3.93;3.40;;;;;;;;;;4945152;28;20489;-52
2022/04/05 09:29:10;;;;;;;4.27;3.47;;;;;;;;;;4946050;28;20471;-52
2022/04/05 09:31:48;;;;;;;7.50;4.10;;;;;;;;;;4927284;28;20446;-52
2022/04/05 09:34:21;;;;;;;5.87;3.40;;;;;;;;;;4944773;28;20443;-51
2022/04/05 09:36:50;;;;;;;4.93;4.13;;;;;;;;;;4943429;28;20442;-51
2022/04/05 09:39:19;;;;;;;6.90;3.57;;;;;;;;;;4948308;28;20467;-51
2022/04/05 09:41:45;;;;;;;5.77;4.23;;;;;;;;;;4942571;28;20461;-52
2022/04/05 09:44:12;;;;;;;6.57;4.57;;;;;;;;;;4945183;28;20438;-51
2022/04/05 09:46:37;;;;;;;4.23;3.50;;;;;;;;;;4942616;28;20475;-51
2022/04/05 09:49:26;;;;;;;5.20;3.60;;;;;;;;;;4944778;28;20494;-50
2022/04/05 09:51:52;;;;;;;5.13;4.47;;;;;;;;;;4948100;28;20506;-53
2022/04/05 09:54:20;;;;;;;4.10;3.63;;;;;;;;;;4944024;28;20624;-51
2022/04/05 09:56:46;;;;;;;6.50;4.20;;;;;;;;;;4948775;28;20439;-51
2022/04/05 09:59:18;;;;;;;4.83;3.30;;;;;;;;;;4947035;28;20964;-51
2022/04/05 10:01:45;;;;;;;6.97;4.00;;;;;;;;;;4947801;28;20856;-52
2022/04/05 10:04:15;;;;;;;4.80;3.73;;;;;;;;;;4945721;28;20457;-52
2022/04/05 10:06:47;;;;;;;6.70;4.30;;;;;;;;;;4949714;28;20855;-53
2022/04/05 10:09:13;;;;;;;4.80;4.33;;;;;;;;;;4939741;28;20490;-51
2022/04/05 10:11:39;;;;;;;4.73;4.10;;;;;;;;;;4945254;28;20443;-52
2022/04/05 10:14:06;;;;;;;5.30;4.00;;;;;;;;;;4949037;28;20475;-52
2022/04/05 10:16:32;;;;;;;4.90;3.50;;;;;;;;;;4943406;28;20474;-53
2022/04/05 10:19:03;;;;;;;5.27;3.70;;;;;;;;;;4943715;28;20462;-51
2022/04/05 10:21:29;;;;;;;4.20;3.40;;;;;;;;;;4944276;28;20446;-52
2022/04/05 10:23:56;;;;;;;4.67;3.70;;;;;;;;;;4951959;28;20447;-52
2022/04/05 10:26:27;;;;;;;4.67;3.40;;;;;;;;;;4945577;28;20432;-55
2022/04/05 10:28:53;;;;;;;4.53;3.67;;;;;;;;;;4953601;28;20493;-52
2022/04/05 10:31:22;;;;;;;5.90;3.10;;;;;;;;;;4951370;28;20469;-51
2022/04/05 10:34:04;;;;;;;4.20;2.77;;;;;;;;;;4949510;28;20498;-51
2022/04/05 10:36:32;;;;;;;5.20;3.50;;;;;;;;;;4953181;28;20443;-53
2022/04/05 10:39:17;;;;;;;4.43;3.90;;;;;;;;;;4949994;28;20482;-51
2022/04/05 10:41:43;;;;;;;4.57;3.70;;;;;;;;;;4953422;28;20466;-57
2022/04/05 10:44:18;;;;;;;6.77;4.50;;;;;;;;;;4955770;28;20849;-53
2022/04/05 10:46:51;;;;;;;5.37;4.87;;;;;;;;;;4955020;28;20434;-58
2022/04/05 10:49:33;;;;;;;8.13;5.20;;;;;;;;;;4950655;28;20513;-52
2022/04/05 10:52:07;;;;;;;9.50;5.20;;;;;;;;;;4953825;28;20442;-52
2022/04/05 10:54:40;;;;;;;7.00;5.20;;;;;;;;;;4950676;28;20438;-51
2022/04/05 10:57:26;;;;;;;6.43;4.50;;;;;;;;;;4955408;28;20507;-52
2022/04/05 10:59:55;;;;;;;5.30;4.40;;;;;;;;;;4954493;28;20454;-51
2022/04/05 11:02:27;;;;;;;6.30;4.50;;;;;;;;;;4947969;28;20436;-52
2022/04/05 11:04:59;;;;;;;3.80;3.40;;;;;;;;;;4949462;28;21035;-53
2022/04/05 11:07:25;;;;;;;3.43;2.90;;;;;;;;;;4944699;28;20436;-54
2022/04/05 11:09:55;;;;;;;3.57;2.83;;;;;;;;;;4953587;28;20802;-52
2022/04/05 11:12:21;;;;;;;11.43;3.30;;;;;;;;;;4953978;28;20435;-52
2022/04/05 11:14:49;;;;;;;4.90;3.13;;;;;;;;;;4955995;28;20439;-52
2022/04/05 11:17:16;;;;;;;3.30;2.80;;;;;;;;;;4950040;28;20436;-51
2022/04/05 11:19:46;;;;;;;5.93;3.10;;;;;;;;;;4953495;28;20443;-52
2022/04/05 11:22:21;;;;;;;5.77;3.43;;;;;;;;;;4950683;28;20518;-52
2022/04/05 11:25:13;;;;;;;3.20;2.80;;;;;;;;;;4954405;28;20872;-51
2022/04/05 11:27:45;;;;;;;3.97;3.57;;;;;;;;;;4949422;28;20439;-52
2022/04/05 11:30:25;;;;;;;5.70;3.43;;;;;;;;;;4948343;28;20448;-53
2022/04/05 11:33:09;;;;;;;3.40;2.77;;;;;;;;;;4949777;28;20454;-52
2022/04/05 11:35:45;;;;;;;3.70;2.70;;;;;;;;;;4950590;28;20469;-52
2022/04/05 11:38:20;;;;;;;6.13;3.60;;;;;;;;;;4946410;28;20426;-53
2022/04/05 11:40:50;;;;;;;5.63;3.70;;;;;;;;;;4946471;28;20608;-51
2022/04/05 11:43:29;;;;;;;5.00;4.20;;;;;;;;;;4946695;28;20439;-50
2022/04/05 11:45:56;;;;;;;4.00;3.60;;;;;;;;;;4945093;28;20450;-53
2022/04/05 11:48:22;;;;;;;4.13;2.80;;;;;;;;;;4948013;28;20471;-51
2022/04/05 11:50:51;;;;;;;3.77;3.27;;;;;;;;;;4949864;28;20602;-50
2022/04/05 11:53:18;;;;;;;7.17;2.90;;;;;;;;;;4946494;28;20470;-53
2022/04/05 11:56:02;;;;;;;4.50;2.83;;;;;;;;;;4949861;28;20444;-51
2022/04/05 11:58:30;;;;;;;4.07;3.37;;;;;;;;;;4949661;28;20530;-52
2022/04/05 12:00:56;;;;;;;4.57;2.77;;;;;;;;;;4949693;28;20455;-52
2022/04/05 12:03:22;;;;;;;4.20;2.97;;;;;;;;;;4949620;28;20959;-52
2022/04/05 12:05:48;;;;;;;4.60;3.33;;;;;;;;;;4945199;28;20448;-52
2022/04/05 12:08:14;;;;;;;3.33;2.80;;;;;;;;;;4946177;28;20712;-52
2022/04/05 12:10:40;;;;;;;3.07;2.63;;;;;;;;;;4945164;28;21336;-53
2022/04/05 12:13:06;;;;;;;4.50;4.10;;;;;;;;;;4945373;28;20443;-52
2022/04/05 12:15:36;;;;;;;3.53;2.80;;;;;;;;;;4945900;28;20461;-51
2022/04/05 12:18:17;;;;;;;3.80;2.67;;;;;;;;;;4943970;28;20493;-52
2022/04/05 12:21:13;;;;;;;5.60;3.57;;;;;;;;;;4949694;28;21155;-52
2022/04/05 12:23:40;;;;;;;3.57;2.57;;;;;;;;;;4937291;28;20447;-52
2022/04/05 12:26:06;;;;;;;4.17;2.70;;;;;;;;;;4944495;28;20427;-51
2022/04/05 12:28:32;;;;;;;3.70;3.07;;;;;;;;;;4947708;28;20490;-52
2022/04/05 12:31:11;;;;;;;5.10;3.20;;;;;;;;;;4946475;28;20435;-52
2022/04/05 12:33:38;;;;;;;4.43;3.27;;;;;;;;;;4946219;28;20546;-52
2022/04/05 12:36:04;;;;;;;6.63;2.77;;;;;;;;;;4944206;28;20447;-52
2022/04/05 12:38:31;;;;;;;4.13;2.57;;;;;;;;;;4944660;28;20761;-54
2022/04/05 12:40:57;;;;;;;5.33;3.73;;;;;;;;;;4949010;28;20473;-52
2022/04/05 12:43:23;;;;;;;4.93;2.70;;;;;;;;;;4949006;28;20820;-52
2022/04/05 12:45:49;;;;;;;2.27;1.87;;;;;;;;;;4949279;28;20466;-52
2022/04/05 12:48:19;;;;;;;4.83;2.20;;;;;;;;;;4945467;28;20522;-51
2022/04/05 12:50:45;;;;;;;3.50;3.20;;;;;;;;;;4939147;28;20447;-52
2022/04/05 12:53:13;;;;;;;5.03;2.60;;;;;;;;;;4941565;28;22144;-52
2022/04/05 12:55:39;;;;;;;3.27;1.87;;;;;;;;;;4942397;28;20530;-51
2022/04/05 12:58:07;;;;;;;3.97;2.50;;;;;;;;;;4941387;28;20443;-51
2022/04/05 13:00:33;;;;;;;10.00;2.90;;;;;;;;;;4946434;28;20486;-51
2022/04/05 13:03:09;;;;;;;2.70;2.07;;;;;;;;;;4936724;28;20443;-52
2022/04/05 13:08:27;;;;;;;3.20;2.17;;;;;;;;;;4941345;28;20844;-53
2022/04/05 13:10:53;;;;;;;3.00;2.33;;;;;;;;;;4944441;28;20518;-53
2022/04/05 13:13:23;;;;;;;2.60;2.03;;;;;;;;;;4945919;28;20803;-52
2022/04/05 13:16:03;;;;;;;2.57;2.37;;;;;;;;;;4946538;28;20474;-54
2022/04/05 13:18:36;;;;;;;3.13;2.27;;;;;;;;;;4944901;28;20441;-52
2022/04/05 13:21:03;;;;;;;4.40;2.43;;;;;;;;;;4943467;28;20462;-52
2022/04/05 13:23:31;;;;;;;4.80;2.00;;;;;;;;;;4942350;28;20453;-54
2022/04/05 13:25:57;;;;;;;2.73;2.47;;;;;;;;;;4946427;28;20447;-51
2022/04/05 13:28:33;;;;;;;3.23;1.53;;;;;;;;;;4947155;28;20597;-52
2022/04/05 13:31:06;;;;;;;3.20;2.63;;;;;;;;;;4945914;28;20469;-52
2022/04/05 13:33:32;;;;;;;3.07;2.57;;;;;;;;;;4943325;28;20443;-52
2022/04/05 13:35:58;;;;;;;2.67;2.00;;;;;;;;;;4948082;28;20606;-52
2022/04/05 13:38:26;;;;;;;3.00;2.07;;;;;;;;;;4940887;28;20458;-51
2022/04/05 13:40:53;;;;;;;3.30;1.80;;;;;;;;;;4945651;28;20467;-52
2022/04/05 13:43:19;;;;;;;2.60;2.37;;;;;;;;;;4946080;28;20443;-53
2022/04/05 13:45:45;;;;;;;2.30;1.60;;;;;;;;;;4947203;28;20586;-52
2022/04/05 13:48:11;;;;;;;2.67;2.10;;;;;;;;;;4945028;28;20534;-52
2022/04/05 13:50:37;;;;;;;1.70;1.60;;;;;;;;;;4942198;28;21077;-52
2022/04/05 13:53:03;;;;;;;3.47;2.20;;;;;;;;;;4946701;28;20436;-50
2022/04/05 13:55:29;;;;;;;1.93;1.40;;;;;;;;;;4949287;28;20455;-51
2022/04/05 13:57:55;;;;;;;2.43;2.23;;;;;;;;;;4948059;28;20514;-52
2022/04/05 14:00:22;;;;;;;2.37;2.00;;;;;;;;;;4946823;28;20460;-52
2022/04/05 14:02:48;;;;;;;3.07;2.23;;;;;;;;;;4947128;28;20441;-51
2022/04/05 14:05:15;;;;;;;4.70;2.73;;;;;;;;;;4951926;28;20439;-51
2022/04/05 14:07:42;;;;;;;3.07;2.00;;;;;;;;;;4950466;28;20438;-54
2022/04/05 14:10:08;;;;;;;3.10;2.23;;;;;;;;;;4927751;29;20506;-51
2022/04/05 14:12:34;;;;;;;2.90;1.67;;;;;;;;;;4950881;28;20506;-52
2022/04/05 14:15:00;;;;;;;2.07;1.57;;;;;;;;;;4947750;28;20465;-52
2022/04/05 14:17:26;;;;;;;2.37;1.30;;;;;;;;;;4946394;28;20440;-51
2022/04/05 14:19:52;;;;;;;2.40;1.60;;;;;;;;;;4948172;28;20195;-53
2022/04/05 14:22:18;;;;;;;2.93;1.80;;;;;;;;;;4945445;28;20434;-53
2022/04/05 14:24:44;;;;;;;1.57;1.43;;;;;;;;;;4947978;28;20474;-52
2022/04/05 14:27:10;;;;;;;3.40;1.50;;;;;;;;;;4939156;28;20444;-52
2022/04/05 14:29:37;;;;;;;2.70;1.57;;;;;;;;;;4943868;28;20478;-53
2022/04/05 14:32:03;;;;;;;2.27;1.60;;;;;;;;;;4948710;28;20978;-52
2022/04/05 14:34:29;;;;;;;2.30;1.83;;;;;;;;;;4944015;28;20439;-52
2022/04/05 14:36:55;;;;;;;2.20;2.00;;;;;;;;;;4944898;28;20446;-52
2022/04/05 14:39:21;;;;;;;3.20;2.30;;;;;;;;;;4944202;28;20431;-52
2022/04/05 14:41:47;;;;;;;2.73;1.90;;;;;;;;;;4939458;28;20217;-52
2022/04/05 14:44:14;;;;;;;2.90;2.10;;;;;;;;;;4944467;28;20438;-51
2022/04/05 14:46:40;;;;;;;3.50;2.60;;;;;;;;;;4941971;28;20451;-52